sensor_id;sensor_type;location;lat;lon;timestamp;P1;durP1;ratioP1;P2;durP2;ratioP2
72621;SDS011;60665;53.506;9.582;2024-03-22T00:02:23;14.65;;;6.45;;
72621;SDS011;60665;53.506;9.582;2024-03-22T00:05:47;12.30;;;5.00;;
72621;SDS011;60665;53.506;9.582;2024-03-22T00:09:11;10.43;;;5.97;;
72621;SDS011;60665;53.506;9.582;2024-03-22T00:12:35;12.02;;;5.65;;
72621;SDS011;60665;53.506;9.582;2024-03-22T00:15:59;10.18;;;5.53;;
72621;SDS011;60665;53.506;9.582;2024-03-22T00:19:23;11.02;;;5.57;;
72621;SDS011;60665;53.506;9.582;2024-03-22T00:22:47;13.77;;;5.80;;
72621;SDS011;60665;53.506;9.582;2024-03-22T00:26:11;14.23;;;5.75;;
72621;SDS011;60665;53.506;9.582;2024-03-22T00:29:36;10.93;;;5.88;;
72621;SDS011;60665;53.506;9.582;2024-03-22T00:33:00;11.88;;;5.70;;
72621;SDS011;60665;53.506;9.582;2024-03-22T00:36:24;13.02;;;5.68;;
72621;SDS011;60665;53.506;9.582;2024-03-22T00:39:48;16.45;;;6.18;;
72621;SDS011;60665;53.506;9.582;2024-03-22T00:43:12;11.38;;;5.85;;
72621;SDS011;60665;53.506;9.582;2024-03-22T00:46:36;12.73;;;6.25;;
72621;SDS011;60665;53.506;9.582;2024-03-22T00:50:00;13.13;;;5.93;;
72621;SDS011;60665;53.506;9.582;2024-03-22T00:53:23;14.68;;;6.22;;
72621;SDS011;60665;53.506;9.582;2024-03-22T00:56:47;13.73;;;6.45;;
72621;SDS011;60665;53.506;9.582;2024-03-22T01:00:11;13.07;;;6.30;;
72621;SDS011;60665;53.506;9.582;2024-03-22T01:03:35;20.15;;;6.72;;
72621;SDS011;60665;53.506;9.582;2024-03-22T01:06:59;14.50;;;6.53;;
72621;SDS011;60665;53.506;9.582;2024-03-22T01:10:23;14.80;;;6.40;;
72621;SDS011;60665;53.506;9.582;2024-03-22T01:13:47;16.10;;;6.50;;
72621;SDS011;60665;53.506;9.582;2024-03-22T01:17:11;14.48;;;6.30;;
72621;SDS011;60665;53.506;9.582;2024-03-22T01:20:35;17.27;;;6.80;;
72621;SDS011;60665;53.506;9.582;2024-03-22T01:24:00;15.23;;;6.55;;
72621;SDS011;60665;53.506;9.582;2024-03-22T01:27:24;15.65;;;6.97;;
72621;SDS011;60665;53.506;9.582;2024-03-22T01:30:48;16.77;;;7.40;;
72621;SDS011;60665;53.506;9.582;2024-03-22T01:34:12;16.40;;;6.38;;
72621;SDS011;60665;53.506;9.582;2024-03-22T01:37:36;14.93;;;6.90;;
72621;SDS011;60665;53.506;9.582;2024-03-22T01:41:00;15.52;;;7.53;;
72621;SDS011;60665;53.506;9.582;2024-03-22T01:44:27;16.85;;;7.60;;
72621;SDS011;60665;53.506;9.582;2024-03-22T01:47:51;16.63;;;7.25;;
72621;SDS011;60665;53.506;9.582;2024-03-22T01:51:16;14.98;;;6.93;;
72621;SDS011;60665;53.506;9.582;2024-03-22T01:54:40;18.38;;;9.25;;
72621;SDS011;60665;53.506;9.582;2024-03-22T01:58:04;19.80;;;8.50;;
72621;SDS011;60665;53.506;9.582;2024-03-22T02:01:28;18.80;;;8.27;;
72621;SDS011;60665;53.506;9.582;2024-03-22T02:04:52;16.08;;;7.88;;
72621;SDS011;60665;53.506;9.582;2024-03-22T02:08:16;16.77;;;8.35;;
72621;SDS011;60665;53.506;9.582;2024-03-22T02:11:40;18.17;;;9.27;;
72621;SDS011;60665;53.506;9.582;2024-03-22T02:15:04;19.23;;;9.77;;
72621;SDS011;60665;53.506;9.582;2024-03-22T02:18:29;19.98;;;9.25;;
72621;SDS011;60665;53.506;9.582;2024-03-22T02:21:52;24.58;;;10.65;;
72621;SDS011;60665;53.506;9.582;2024-03-22T02:25:16;22.05;;;10.00;;
72621;SDS011;60665;53.506;9.582;2024-03-22T02:28:40;20.95;;;10.05;;
72621;SDS011;60665;53.506;9.582;2024-03-22T02:32:05;22.35;;;10.25;;
72621;SDS011;60665;53.506;9.582;2024-03-22T02:35:29;23.67;;;11.25;;
72621;SDS011;60665;53.506;9.582;2024-03-22T02:38:53;27.13;;;11.25;;
72621;SDS011;60665;53.506;9.582;2024-03-22T02:42:17;24.30;;;10.15;;
72621;SDS011;60665;53.506;9.582;2024-03-22T02:45:43;21.58;;;9.85;;
72621;SDS011;60665;53.506;9.582;2024-03-22T02:49:07;21.23;;;10.45;;
72621;SDS011;60665;53.506;9.582;2024-03-22T02:52:31;24.40;;;11.20;;
72621;SDS011;60665;53.506;9.582;2024-03-22T02:55:55;24.05;;;10.27;;
72621;SDS011;60665;53.506;9.582;2024-03-22T02:59:19;26.13;;;11.63;;
72621;SDS011;60665;53.506;9.582;2024-03-22T03:02:43;24.08;;;11.20;;
72621;SDS011;60665;53.506;9.582;2024-03-22T03:06:07;23.83;;;11.07;;
72621;SDS011;60665;53.506;9.582;2024-03-22T03:09:31;24.00;;;12.30;;
72621;SDS011;60665;53.506;9.582;2024-03-22T03:12:55;25.13;;;12.52;;
72621;SDS011;60665;53.506;9.582;2024-03-22T03:16:19;25.65;;;11.23;;
72621;SDS011;60665;53.506;9.582;2024-03-22T03:19:43;24.90;;;11.35;;
72621;SDS011;60665;53.506;9.582;2024-03-22T03:23:08;25.85;;;11.60;;
72621;SDS011;60665;53.506;9.582;2024-03-22T03:26:34;27.77;;;13.32;;
72621;SDS011;60665;53.506;9.582;2024-03-22T03:29:58;30.13;;;13.10;;
72621;SDS011;60665;53.506;9.582;2024-03-22T03:33:22;31.15;;;13.73;;
72621;SDS011;60665;53.506;9.582;2024-03-22T03:36:47;29.13;;;12.90;;
72621;SDS011;60665;53.506;9.582;2024-03-22T03:40:11;28.63;;;13.38;;
72621;SDS011;60665;53.506;9.582;2024-03-22T03:43:35;34.45;;;14.63;;
72621;SDS011;60665;53.506;9.582;2024-03-22T03:47:00;30.52;;;14.57;;
72621;SDS011;60665;53.506;9.582;2024-03-22T03:50:25;26.45;;;13.85;;
72621;SDS011;60665;53.506;9.582;2024-03-22T03:53:48;29.85;;;14.55;;
72621;SDS011;60665;53.506;9.582;2024-03-22T03:57:12;32.58;;;14.88;;
72621;SDS011;60665;53.506;9.582;2024-03-22T04:00:36;30.48;;;14.50;;
72621;SDS011;60665;53.506;9.582;2024-03-22T04:04:01;33.00;;;15.32;;
72621;SDS011;60665;53.506;9.582;2024-03-22T04:07:25;35.00;;;15.48;;
72621;SDS011;60665;53.506;9.582;2024-03-22T04:10:51;30.17;;;14.07;;
72621;SDS011;60665;53.506;9.582;2024-03-22T04:14:15;32.17;;;14.63;;
72621;SDS011;60665;53.506;9.582;2024-03-22T04:17:39;34.30;;;15.65;;
72621;SDS011;60665;53.506;9.582;2024-03-22T04:21:03;35.90;;;16.48;;
72621;SDS011;60665;53.506;9.582;2024-03-22T04:24:27;34.47;;;15.00;;
72621;SDS011;60665;53.506;9.582;2024-03-22T04:27:50;31.05;;;14.75;;
72621;SDS011;60665;53.506;9.582;2024-03-22T04:31:14;29.05;;;14.40;;
72621;SDS011;60665;53.506;9.582;2024-03-22T04:34:41;31.67;;;15.05;;
72621;SDS011;60665;53.506;9.582;2024-03-22T04:38:10;35.83;;;15.48;;
72621;SDS011;60665;53.506;9.582;2024-03-22T04:41:34;32.55;;;15.48;;
72621;SDS011;60665;53.506;9.582;2024-03-22T04:44:58;31.40;;;15.23;;
72621;SDS011;60665;53.506;9.582;2024-03-22T04:48:23;33.67;;;15.60;;
72621;SDS011;60665;53.506;9.582;2024-03-22T04:51:47;34.28;;;15.43;;
72621;SDS011;60665;53.506;9.582;2024-03-22T04:55:10;33.50;;;15.68;;
72621;SDS011;60665;53.506;9.582;2024-03-22T04:58:34;31.52;;;15.25;;
72621;SDS011;60665;53.506;9.582;2024-03-22T05:01:58;37.35;;;15.55;;
72621;SDS011;60665;53.506;9.582;2024-03-22T05:05:22;34.97;;;15.43;;
72621;SDS011;60665;53.506;9.582;2024-03-22T05:08:46;34.17;;;15.05;;
72621;SDS011;60665;53.506;9.582;2024-03-22T05:12:10;32.22;;;14.98;;
72621;SDS011;60665;53.506;9.582;2024-03-22T05:15:34;35.17;;;16.38;;
72621;SDS011;60665;53.506;9.582;2024-03-22T05:18:58;31.80;;;15.70;;
72621;SDS011;60665;53.506;9.582;2024-03-22T05:22:22;34.00;;;15.15;;
72621;SDS011;60665;53.506;9.582;2024-03-22T05:25:46;35.88;;;16.45;;
72621;SDS011;60665;53.506;9.582;2024-03-22T05:29:10;37.90;;;16.15;;
72621;SDS011;60665;53.506;9.582;2024-03-22T05:32:35;36.88;;;16.30;;
72621;SDS011;60665;53.506;9.582;2024-03-22T05:35:58;34.40;;;15.75;;
72621;SDS011;60665;53.506;9.582;2024-03-22T05:39:22;34.65;;;16.05;;
72621;SDS011;60665;53.506;9.582;2024-03-22T05:42:46;37.30;;;16.85;;
72621;SDS011;60665;53.506;9.582;2024-03-22T05:46:10;40.03;;;16.63;;
72621;SDS011;60665;53.506;9.582;2024-03-22T05:49:34;40.10;;;17.95;;
72621;SDS011;60665;53.506;9.582;2024-03-22T05:52:58;37.92;;;17.17;;
72621;SDS011;60665;53.506;9.582;2024-03-22T05:56:22;40.72;;;17.52;;
72621;SDS011;60665;53.506;9.582;2024-03-22T05:59:45;39.83;;;16.88;;
72621;SDS011;60665;53.506;9.582;2024-03-22T06:03:09;42.25;;;18.15;;
72621;SDS011;60665;53.506;9.582;2024-03-22T06:06:34;43.05;;;18.02;;
72621;SDS011;60665;53.506;9.582;2024-03-22T06:10:05;41.38;;;17.35;;
72621;SDS011;60665;53.506;9.582;2024-03-22T06:13:29;42.42;;;17.60;;
72621;SDS011;60665;53.506;9.582;2024-03-22T06:16:53;36.97;;;17.75;;
72621;SDS011;60665;53.506;9.582;2024-03-22T06:20:18;40.85;;;17.00;;
72621;SDS011;60665;53.506;9.582;2024-03-22T06:23:48;38.08;;;17.25;;
72621;SDS011;60665;53.506;9.582;2024-03-22T06:27:12;41.10;;;17.52;;
72621;SDS011;60665;53.506;9.582;2024-03-22T06:30:35;40.80;;;18.33;;
72621;SDS011;60665;53.506;9.582;2024-03-22T06:33:59;37.60;;;17.23;;
72621;SDS011;60665;53.506;9.582;2024-03-22T06:37:23;41.63;;;17.35;;
72621;SDS011;60665;53.506;9.582;2024-03-22T06:40:47;39.28;;;18.30;;
72621;SDS011;60665;53.506;9.582;2024-03-22T06:44:11;40.17;;;16.77;;
72621;SDS011;60665;53.506;9.582;2024-03-22T06:47:35;42.08;;;17.80;;
72621;SDS011;60665;53.506;9.582;2024-03-22T06:50:59;38.00;;;17.80;;
72621;SDS011;60665;53.506;9.582;2024-03-22T06:54:24;40.10;;;17.02;;
72621;SDS011;60665;53.506;9.582;2024-03-22T06:57:48;39.13;;;17.08;;
72621;SDS011;60665;53.506;9.582;2024-03-22T07:01:12;37.95;;;17.85;;
72621;SDS011;60665;53.506;9.582;2024-03-22T07:04:38;44.63;;;18.17;;
72621;SDS011;60665;53.506;9.582;2024-03-22T07:08:01;41.58;;;19.20;;
72621;SDS011;60665;53.506;9.582;2024-03-22T07:11:25;38.67;;;17.60;;
72621;SDS011;60665;53.506;9.582;2024-03-22T07:14:49;36.38;;;16.30;;
72621;SDS011;60665;53.506;9.582;2024-03-22T07:18:14;39.00;;;18.50;;
72621;SDS011;60665;53.506;9.582;2024-03-22T07:21:38;40.67;;;17.33;;
72621;SDS011;60665;53.506;9.582;2024-03-22T07:25:02;44.70;;;18.75;;
72621;SDS011;60665;53.506;9.582;2024-03-22T07:28:26;40.30;;;18.25;;
72621;SDS011;60665;53.506;9.582;2024-03-22T07:31:50;43.65;;;17.65;;
72621;SDS011;60665;53.506;9.582;2024-03-22T07:35:13;41.70;;;17.88;;
72621;SDS011;60665;53.506;9.582;2024-03-22T07:38:40;41.47;;;18.23;;
72621;SDS011;60665;53.506;9.582;2024-03-22T07:42:04;40.75;;;18.38;;
72621;SDS011;60665;53.506;9.582;2024-03-22T07:45:35;41.78;;;18.75;;
72621;SDS011;60665;53.506;9.582;2024-03-22T07:48:58;42.83;;;18.08;;
72621;SDS011;60665;53.506;9.582;2024-03-22T07:52:22;41.22;;;18.65;;
72621;SDS011;60665;53.506;9.582;2024-03-22T07:55:46;40.42;;;17.77;;
72621;SDS011;60665;53.506;9.582;2024-03-22T07:59:10;40.13;;;18.33;;
72621;SDS011;60665;53.506;9.582;2024-03-22T08:02:35;43.92;;;17.95;;
72621;SDS011;60665;53.506;9.582;2024-03-22T08:05:59;42.63;;;17.98;;
72621;SDS011;60665;53.506;9.582;2024-03-22T08:09:23;45.50;;;20.20;;
72621;SDS011;60665;53.506;9.582;2024-03-22T08:12:46;41.35;;;18.67;;
72621;SDS011;60665;53.506;9.582;2024-03-22T08:16:11;45.10;;;19.17;;
72621;SDS011;60665;53.506;9.582;2024-03-22T08:19:36;42.42;;;17.85;;
72621;SDS011;60665;53.506;9.582;2024-03-22T08:23:02;39.05;;;17.63;;
72621;SDS011;60665;53.506;9.582;2024-03-22T08:26:26;44.85;;;18.63;;
72621;SDS011;60665;53.506;9.582;2024-03-22T08:29:50;43.47;;;18.65;;
72621;SDS011;60665;53.506;9.582;2024-03-22T08:33:14;44.75;;;19.30;;
72621;SDS011;60665;53.506;9.582;2024-03-22T08:36:37;38.50;;;17.80;;
72621;SDS011;60665;53.506;9.582;2024-03-22T08:40:01;45.20;;;19.90;;
72621;SDS011;60665;53.506;9.582;2024-03-22T08:43:25;45.75;;;18.40;;
72621;SDS011;60665;53.506;9.582;2024-03-22T08:46:49;47.50;;;19.00;;
72621;SDS011;60665;53.506;9.582;2024-03-22T08:50:13;40.92;;;18.17;;
72621;SDS011;60665;53.506;9.582;2024-03-22T08:53:37;41.42;;;18.70;;
72621;SDS011;60665;53.506;9.582;2024-03-22T08:57:01;46.28;;;20.27;;
72621;SDS011;60665;53.506;9.582;2024-03-22T09:00:25;41.78;;;16.98;;
72621;SDS011;60665;53.506;9.582;2024-03-22T09:03:49;42.10;;;17.73;;
72621;SDS011;60665;53.506;9.582;2024-03-22T09:07:13;42.33;;;18.15;;
72621;SDS011;60665;53.506;9.582;2024-03-22T09:10:36;44.95;;;17.48;;
72621;SDS011;60665;53.506;9.582;2024-03-22T09:14:00;39.67;;;16.42;;
72621;SDS011;60665;53.506;9.582;2024-03-22T09:17:25;38.55;;;16.58;;
72621;SDS011;60665;53.506;9.582;2024-03-22T09:20:49;40.92;;;17.27;;
72621;SDS011;60665;53.506;9.582;2024-03-22T09:24:13;38.53;;;16.83;;
72621;SDS011;60665;53.506;9.582;2024-03-22T09:27:37;34.13;;;15.40;;
72621;SDS011;60665;53.506;9.582;2024-03-22T09:31:05;34.67;;;15.70;;
72621;SDS011;60665;53.506;9.582;2024-03-22T09:34:29;41.15;;;16.10;;
72621;SDS011;60665;53.506;9.582;2024-03-22T09:37:53;34.17;;;15.40;;
72621;SDS011;60665;53.506;9.582;2024-03-22T09:41:18;35.10;;;15.85;;
72621;SDS011;60665;53.506;9.582;2024-03-22T09:44:46;38.00;;;15.25;;
72621;SDS011;60665;53.506;9.582;2024-03-22T09:48:11;31.13;;;14.98;;
72621;SDS011;60665;53.506;9.582;2024-03-22T09:51:36;34.42;;;15.02;;
72621;SDS011;60665;53.506;9.582;2024-03-22T09:55:01;32.38;;;14.50;;
72621;SDS011;60665;53.506;9.582;2024-03-22T09:58:26;32.35;;;13.25;;
72621;SDS011;60665;53.506;9.582;2024-03-22T10:01:50;31.70;;;13.13;;
72621;SDS011;60665;53.506;9.582;2024-03-22T10:05:15;32.30;;;13.95;;
72621;SDS011;60665;53.506;9.582;2024-03-22T10:08:40;29.65;;;11.65;;
72621;SDS011;60665;53.506;9.582;2024-03-22T10:12:03;29.63;;;12.32;;
72621;SDS011;60665;53.506;9.582;2024-03-22T10:15:28;23.95;;;9.73;;
72621;SDS011;60665;53.506;9.582;2024-03-22T10:18:52;20.58;;;9.57;;
72621;SDS011;60665;53.506;9.582;2024-03-22T10:22:16;18.85;;;8.52;;
72621;SDS011;60665;53.506;9.582;2024-03-22T10:25:40;19.35;;;7.90;;
72621;SDS011;60665;53.506;9.582;2024-03-22T10:29:07;16.98;;;7.25;;
72621;SDS011;60665;53.506;9.582;2024-03-22T10:32:33;15.75;;;6.57;;
72621;SDS011;60665;53.506;9.582;2024-03-22T10:35:57;17.10;;;7.05;;
72621;SDS011;60665;53.506;9.582;2024-03-22T10:39:23;15.00;;;6.20;;
72621;SDS011;60665;53.506;9.582;2024-03-22T10:42:47;15.82;;;6.63;;
72621;SDS011;60665;53.506;9.582;2024-03-22T10:46:11;15.45;;;6.18;;
72621;SDS011;60665;53.506;9.582;2024-03-22T10:49:36;13.63;;;6.55;;
72621;SDS011;60665;53.506;9.582;2024-03-22T10:53:05;12.93;;;6.45;;
72621;SDS011;60665;53.506;9.582;2024-03-22T10:56:30;12.93;;;5.35;;
72621;SDS011;60665;53.506;9.582;2024-03-22T10:59:54;12.68;;;6.38;;
72621;SDS011;60665;53.506;9.582;2024-03-22T11:03:20;12.77;;;5.65;;
72621;SDS011;60665;53.506;9.582;2024-03-22T11:06:51;15.27;;;6.90;;
72621;SDS011;60665;53.506;9.582;2024-03-22T11:10:26;15.02;;;6.40;;
72621;SDS011;60665;53.506;9.582;2024-03-22T11:13:53;13.35;;;6.75;;
72621;SDS011;60665;53.506;9.582;2024-03-22T11:17:18;14.27;;;6.63;;
72621;SDS011;60665;53.506;9.582;2024-03-22T11:20:42;15.20;;;6.25;;
72621;SDS011;60665;53.506;9.582;2024-03-22T11:24:06;14.60;;;6.50;;
72621;SDS011;60665;53.506;9.582;2024-03-22T11:27:30;15.63;;;6.85;;
72621;SDS011;60665;53.506;9.582;2024-03-22T11:30:57;17.90;;;7.43;;
72621;SDS011;60665;53.506;9.582;2024-03-22T11:34:21;15.05;;;6.60;;
72621;SDS011;60665;53.506;9.582;2024-03-22T11:37:45;13.63;;;6.65;;
72621;SDS011;60665;53.506;9.582;2024-03-22T11:41:08;12.63;;;6.32;;
72621;SDS011;60665;53.506;9.582;2024-03-22T11:44:33;18.13;;;7.47;;
72621;SDS011;60665;53.506;9.582;2024-03-22T11:48:01;13.57;;;6.95;;
72621;SDS011;60665;53.506;9.582;2024-03-22T11:51:25;10.82;;;5.82;;
72621;SDS011;60665;53.506;9.582;2024-03-22T11:54:53;12.05;;;5.75;;
72621;SDS011;60665;53.506;9.582;2024-03-22T11:58:18;13.20;;;5.80;;
72621;SDS011;60665;53.506;9.582;2024-03-22T12:01:44;12.90;;;6.03;;
72621;SDS011;60665;53.506;9.582;2024-03-22T12:05:09;12.88;;;5.70;;
72621;SDS011;60665;53.506;9.582;2024-03-22T12:08:34;12.07;;;5.00;;
72621;SDS011;60665;53.506;9.582;2024-03-22T12:11:58;10.65;;;5.20;;
72621;SDS011;60665;53.506;9.582;2024-03-22T12:15:22;10.82;;;5.43;;
72621;SDS011;60665;53.506;9.582;2024-03-22T12:18:46;10.60;;;4.95;;
72621;SDS011;60665;53.506;9.582;2024-03-22T12:22:10;11.23;;;5.38;;
72621;SDS011;60665;53.506;9.582;2024-03-22T12:25:33;9.75;;;4.82;;
72621;SDS011;60665;53.506;9.582;2024-03-22T12:28:57;11.15;;;4.75;;
72621;SDS011;60665;53.506;9.582;2024-03-22T12:32:21;9.57;;;4.85;;
72621;SDS011;60665;53.506;9.582;2024-03-22T12:35:45;10.65;;;4.47;;
72621;SDS011;60665;53.506;9.582;2024-03-22T12:39:09;7.72;;;3.67;;
72621;SDS011;60665;53.506;9.582;2024-03-22T12:42:33;8.57;;;3.72;;
72621;SDS011;60665;53.506;9.582;2024-03-22T12:45:57;5.93;;;2.88;;
72621;SDS011;60665;53.506;9.582;2024-03-22T12:49:21;5.20;;;2.60;;
72621;SDS011;60665;53.506;9.582;2024-03-22T12:52:45;5.18;;;2.67;;
72621;SDS011;60665;53.506;9.582;2024-03-22T12:56:09;6.22;;;2.28;;
72621;SDS011;60665;53.506;9.582;2024-03-22T12:59:33;4.90;;;2.10;;
72621;SDS011;60665;53.506;9.582;2024-03-22T13:02:58;4.18;;;1.30;;
72621;SDS011;60665;53.506;9.582;2024-03-22T13:06:23;3.03;;;1.23;;
72621;SDS011;60665;53.506;9.582;2024-03-22T13:09:47;4.40;;;1.40;;
72621;SDS011;60665;53.506;9.582;2024-03-22T13:13:12;2.83;;;1.23;;
72621;SDS011;60665;53.506;9.582;2024-03-22T13:16:36;3.97;;;1.30;;
72621;SDS011;60665;53.506;9.582;2024-03-22T13:19:59;3.70;;;1.55;;
72621;SDS011;60665;53.506;9.582;2024-03-22T13:23:23;4.05;;;1.25;;
72621;SDS011;60665;53.506;9.582;2024-03-22T13:26:47;3.10;;;1.23;;
72621;SDS011;60665;53.506;9.582;2024-03-22T13:30:11;4.63;;;1.50;;
72621;SDS011;60665;53.506;9.582;2024-03-22T13:33:35;3.67;;;1.27;;
72621;SDS011;60665;53.506;9.582;2024-03-22T13:37:03;4.53;;;1.63;;
72621;SDS011;60665;53.506;9.582;2024-03-22T13:40:27;4.05;;;1.60;;
72621;SDS011;60665;53.506;9.582;2024-03-22T13:43:51;2.88;;;1.30;;
72621;SDS011;60665;53.506;9.582;2024-03-22T13:47:15;3.25;;;1.23;;
72621;SDS011;60665;53.506;9.582;2024-03-22T13:50:39;2.35;;;0.95;;
72621;SDS011;60665;53.506;9.582;2024-03-22T13:54:03;3.33;;;1.20;;
72621;SDS011;60665;53.506;9.582;2024-03-22T13:57:27;2.78;;;1.23;;
72621;SDS011;60665;53.506;9.582;2024-03-22T14:00:52;3.65;;;1.20;;
72621;SDS011;60665;53.506;9.582;2024-03-22T14:04:16;5.90;;;1.23;;
72621;SDS011;60665;53.506;9.582;2024-03-22T14:07:39;4.53;;;1.50;;
72621;SDS011;60665;53.506;9.582;2024-03-22T14:11:03;7.55;;;1.52;;
72621;SDS011;60665;53.506;9.582;2024-03-22T14:14:27;5.40;;;1.17;;
72621;SDS011;60665;53.506;9.582;2024-03-22T14:17:52;8.30;;;1.90;;
72621;SDS011;60665;53.506;9.582;2024-03-22T14:21:16;4.70;;;1.50;;
72621;SDS011;60665;53.506;9.582;2024-03-22T14:24:40;6.28;;;1.70;;
72621;SDS011;60665;53.506;9.582;2024-03-22T14:28:05;7.28;;;1.50;;
72621;SDS011;60665;53.506;9.582;2024-03-22T14:31:29;8.68;;;2.00;;
72621;SDS011;60665;53.506;9.582;2024-03-22T14:34:52;9.30;;;1.70;;
72621;SDS011;60665;53.506;9.582;2024-03-22T14:38:16;7.78;;;1.50;;
72621;SDS011;60665;53.506;9.582;2024-03-22T14:41:40;9.32;;;1.80;;
72621;SDS011;60665;53.506;9.582;2024-03-22T14:45:04;10.18;;;1.92;;
72621;SDS011;60665;53.506;9.582;2024-03-22T14:48:28;13.55;;;2.35;;
72621;SDS011;60665;53.506;9.582;2024-03-22T14:51:52;11.77;;;1.52;;
72621;SDS011;60665;53.506;9.582;2024-03-22T14:55:16;12.15;;;1.83;;
72621;SDS011;60665;53.506;9.582;2024-03-22T14:58:42;13.75;;;1.83;;
72621;SDS011;60665;53.506;9.582;2024-03-22T15:02:06;10.70;;;2.05;;
72621;SDS011;60665;53.506;9.582;2024-03-22T15:05:30;11.55;;;1.67;;
72621;SDS011;60665;53.506;9.582;2024-03-22T15:08:54;7.80;;;1.17;;
72621;SDS011;60665;53.506;9.582;2024-03-22T15:12:18;12.27;;;2.08;;
72621;SDS011;60665;53.506;9.582;2024-03-22T15:15:43;9.82;;;1.42;;
72621;SDS011;60665;53.506;9.582;2024-03-22T15:19:10;10.23;;;1.83;;
72621;SDS011;60665;53.506;9.582;2024-03-22T15:22:34;10.93;;;1.42;;
72621;SDS011;60665;53.506;9.582;2024-03-22T15:25:58;9.77;;;2.10;;
72621;SDS011;60665;53.506;9.582;2024-03-22T15:29:22;6.63;;;1.30;;
72621;SDS011;60665;53.506;9.582;2024-03-22T15:32:46;9.13;;;1.60;;
72621;SDS011;60665;53.506;9.582;2024-03-22T15:36:10;12.60;;;1.50;;
72621;SDS011;60665;53.506;9.582;2024-03-22T15:39:34;7.07;;;1.45;;
72621;SDS011;60665;53.506;9.582;2024-03-22T15:42:59;9.07;;;1.60;;
72621;SDS011;60665;53.506;9.582;2024-03-22T15:46:23;12.23;;;1.75;;
72621;SDS011;60665;53.506;9.582;2024-03-22T15:49:48;8.27;;;1.70;;
72621;SDS011;60665;53.506;9.582;2024-03-22T15:53:12;8.00;;;2.17;;
72621;SDS011;60665;53.506;9.582;2024-03-22T15:56:36;13.85;;;2.33;;
72621;SDS011;60665;53.506;9.582;2024-03-22T16:00:00;12.48;;;1.90;;
72621;SDS011;60665;53.506;9.582;2024-03-22T16:03:24;14.43;;;1.90;;
72621;SDS011;60665;53.506;9.582;2024-03-22T16:06:48;14.35;;;1.85;;
72621;SDS011;60665;53.506;9.582;2024-03-22T16:10:12;12.43;;;1.85;;
72621;SDS011;60665;53.506;9.582;2024-03-22T16:13:36;15.20;;;2.08;;
72621;SDS011;60665;53.506;9.582;2024-03-22T16:16:59;9.40;;;1.70;;
72621;SDS011;60665;53.506;9.582;2024-03-22T16:20:23;10.18;;;1.98;;
72621;SDS011;60665;53.506;9.582;2024-03-22T16:23:48;12.45;;;2.10;;
72621;SDS011;60665;53.506;9.582;2024-03-22T16:27:12;19.50;;;2.20;;
72621;SDS011;60665;53.506;9.582;2024-03-22T16:30:36;16.25;;;1.90;;
72621;SDS011;60665;53.506;9.582;2024-03-22T16:34:00;17.70;;;2.63;;
72621;SDS011;60665;53.506;9.582;2024-03-22T16:37:24;14.63;;;2.53;;
72621;SDS011;60665;53.506;9.582;2024-03-22T16:40:48;7.65;;;1.38;;
72621;SDS011;60665;53.506;9.582;2024-03-22T16:44:13;11.57;;;1.88;;
72621;SDS011;60665;53.506;9.582;2024-03-22T16:47:37;10.85;;;1.90;;
72621;SDS011;60665;53.506;9.582;2024-03-22T16:51:01;17.73;;;3.05;;
72621;SDS011;60665;53.506;9.582;2024-03-22T16:54:25;18.02;;;2.22;;
72621;SDS011;60665;53.506;9.582;2024-03-22T16:57:50;14.82;;;2.10;;
72621;SDS011;60665;53.506;9.582;2024-03-22T17:01:14;13.18;;;2.13;;
72621;SDS011;60665;53.506;9.582;2024-03-22T17:04:38;12.35;;;2.60;;
72621;SDS011;60665;53.506;9.582;2024-03-22T17:08:04;10.88;;;2.28;;
72621;SDS011;60665;53.506;9.582;2024-03-22T17:11:28;13.07;;;2.20;;
72621;SDS011;60665;53.506;9.582;2024-03-22T17:14:53;10.68;;;2.20;;
72621;SDS011;60665;53.506;9.582;2024-03-22T17:18:24;9.40;;;2.00;;
72621;SDS011;60665;53.506;9.582;2024-03-22T17:21:48;10.32;;;2.30;;
72621;SDS011;60665;53.506;9.582;2024-03-22T17:25:12;10.85;;;2.30;;
72621;SDS011;60665;53.506;9.582;2024-03-22T17:28:36;12.65;;;3.10;;
72621;SDS011;60665;53.506;9.582;2024-03-22T17:32:00;15.73;;;2.97;;
72621;SDS011;60665;53.506;9.582;2024-03-22T17:35:24;15.85;;;3.47;;
72621;SDS011;60665;53.506;9.582;2024-03-22T17:38:48;13.57;;;2.42;;
72621;SDS011;60665;53.506;9.582;2024-03-22T17:42:12;14.65;;;2.25;;
72621;SDS011;60665;53.506;9.582;2024-03-22T17:45:35;13.95;;;2.90;;
72621;SDS011;60665;53.506;9.582;2024-03-22T17:49:01;15.75;;;3.15;;
72621;SDS011;60665;53.506;9.582;2024-03-22T17:52:25;12.38;;;3.35;;
72621;SDS011;60665;53.506;9.582;2024-03-22T17:55:49;20.42;;;6.47;;
72621;SDS011;60665;53.506;9.582;2024-03-22T17:59:13;15.35;;;5.28;;
72621;SDS011;60665;53.506;9.582;2024-03-22T18:02:37;10.10;;;2.63;;
72621;SDS011;60665;53.506;9.582;2024-03-22T18:06:02;17.70;;;3.67;;
72621;SDS011;60665;53.506;9.582;2024-03-22T18:09:26;15.70;;;2.70;;
72621;SDS011;60665;53.506;9.582;2024-03-22T18:12:50;15.98;;;3.10;;
72621;SDS011;60665;53.506;9.582;2024-03-22T18:16:15;13.02;;;2.10;;
72621;SDS011;60665;53.506;9.582;2024-03-22T18:19:39;17.42;;;3.55;;
72621;SDS011;60665;53.506;9.582;2024-03-22T18:23:03;14.98;;;2.65;;
72621;SDS011;60665;53.506;9.582;2024-03-22T18:26:27;14.65;;;1.98;;
72621;SDS011;60665;53.506;9.582;2024-03-22T18:29:51;13.25;;;3.13;;
72621;SDS011;60665;53.506;9.582;2024-03-22T18:33:14;14.23;;;2.35;;
72621;SDS011;60665;53.506;9.582;2024-03-22T18:36:38;13.68;;;2.33;;
72621;SDS011;60665;53.506;9.582;2024-03-22T18:40:02;10.60;;;1.80;;
72621;SDS011;60665;53.506;9.582;2024-03-22T18:43:28;13.00;;;2.55;;
72621;SDS011;60665;53.506;9.582;2024-03-22T18:46:53;15.48;;;2.88;;
72621;SDS011;60665;53.506;9.582;2024-03-22T18:50:17;15.57;;;2.75;;
72621;SDS011;60665;53.506;9.582;2024-03-22T18:53:41;10.18;;;2.05;;
72621;SDS011;60665;53.506;9.582;2024-03-22T18:57:08;17.70;;;2.90;;
72621;SDS011;60665;53.506;9.582;2024-03-22T19:00:32;14.93;;;2.20;;
72621;SDS011;60665;53.506;9.582;2024-03-22T19:03:56;13.45;;;2.70;;
72621;SDS011;60665;53.506;9.582;2024-03-22T19:07:21;13.73;;;2.30;;
72621;SDS011;60665;53.506;9.582;2024-03-22T19:10:45;15.85;;;2.03;;
72621;SDS011;60665;53.506;9.582;2024-03-22T19:14:08;17.00;;;2.60;;
72621;SDS011;60665;53.506;9.582;2024-03-22T19:17:33;19.25;;;2.58;;
72621;SDS011;60665;53.506;9.582;2024-03-22T19:20:57;10.90;;;2.38;;
72621;SDS011;60665;53.506;9.582;2024-03-22T19:24:21;16.73;;;2.92;;
72621;SDS011;60665;53.506;9.582;2024-03-22T19:27:47;20.30;;;2.60;;
72621;SDS011;60665;53.506;9.582;2024-03-22T19:31:10;14.63;;;2.20;;
72621;SDS011;60665;53.506;9.582;2024-03-22T19:34:34;14.18;;;2.10;;
72621;SDS011;60665;53.506;9.582;2024-03-22T19:37:58;13.05;;;2.20;;
72621;SDS011;60665;53.506;9.582;2024-03-22T19:41:25;20.02;;;4.38;;
72621;SDS011;60665;53.506;9.582;2024-03-22T19:44:49;20.90;;;3.75;;
72621;SDS011;60665;53.506;9.582;2024-03-22T19:48:14;16.70;;;2.67;;
72621;SDS011;60665;53.506;9.582;2024-03-22T19:51:38;19.05;;;4.50;;
72621;SDS011;60665;53.506;9.582;2024-03-22T19:55:03;13.98;;;2.47;;
72621;SDS011;60665;53.506;9.582;2024-03-22T19:58:27;12.40;;;2.75;;
72621;SDS011;60665;53.506;9.582;2024-03-22T20:01:51;15.68;;;2.70;;
72621;SDS011;60665;53.506;9.582;2024-03-22T20:05:15;16.52;;;2.28;;
72621;SDS011;60665;53.506;9.582;2024-03-22T20:08:39;19.75;;;2.45;;